Time;durP1;ratioP1;P1;durP2;ratioP2;P2;SDS_P1;SDS_P2;PMS_P1;PMS_P2;Temp;Humidity;BMP_temperature;BMP_pressure;BME280_temperature;BME280_humidity;BME280_pressure;Samples;Min_cycle;Max_cycle;Signal;HPM_P1;HPM_P2
2023/06/11 00:01:19;;;;;;;9.05;3.97;;;20.90;89.60;;;;;;5058933;28;20041;-54
2023/06/11 00:03:52;;;;;;;7.97;3.47;;;20.90;89.90;;;;;;5058319;28;20041;-55
2023/06/11 00:06:20;;;;;;;8.50;3.50;;;20.80;90.00;;;;;;5057583;28;20119;-54
2023/06/11 00:08:47;;;;;;;7.72;3.70;;;20.80;90.20;;;;;;5059114;28;20047;-55
2023/06/11 00:11:13;;;;;;;7.30;4.10;;;20.70;90.40;;;;;;5057105;28;20061;-55
2023/06/11 00:13:38;;;;;;;7.75;3.60;;;20.70;90.40;;;;;;5059308;28;20045;-55
2023/06/11 00:16:05;;;;;;;6.82;3.45;;;20.70;90.60;;;;;;5058524;28;20083;-55
2023/06/11 00:18:31;;;;;;;7.65;3.65;;;20.60;90.70;;;;;;5059089;28;20068;-55
2023/06/11 00:20:58;;;;;;;9.25;3.55;;;20.60;90.80;;;;;;5058518;28;20069;-55
2023/06/11 00:23:24;;;;;;;7.32;3.80;;;20.60;90.80;;;;;;5058874;28;20045;-55
2023/06/11 00:25:52;;;;;;;6.90;3.70;;;20.60;90.80;;;;;;5058904;28;20044;-55
2023/06/11 00:28:18;;;;;;;9.50;3.55;;;20.60;91.20;;;;;;5058413;28;20508;-54
2023/06/11 00:30:44;;;;;;;6.53;3.90;;;20.50;91.10;;;;;;5059059;28;20041;-56
2023/06/11 00:33:10;;;;;;;7.88;3.85;;;20.50;91.20;;;;;;5058253;28;20055;-55
2023/06/11 00:35:37;;;;;;;8.35;4.18;;;20.40;91.30;;;;;;5059060;28;20339;-55
2023/06/11 00:38:03;;;;;;;12.02;4.50;;;20.40;91.40;;;;;;5058308;28;20040;-55
2023/06/11 00:40:31;;;;;;;8.27;4.28;;;20.40;91.50;;;;;;5058763;28;20559;-55
2023/06/11 00:42:57;;;;;;;8.15;4.20;;;20.30;91.50;;;;;;5058652;28;20053;-55
2023/06/11 00:45:24;;;;;;;8.10;4.45;;;20.30;91.60;;;;;;5058461;28;20051;-55
2023/06/11 00:47:49;;;;;;;6.88;3.85;;;20.30;91.60;;;;;;5058988;28;20041;-55
2023/06/11 00:50:15;;;;;;;7.47;4.07;;;20.20;91.70;;;;;;5056988;28;20044;-56
2023/06/11 00:52:44;;;;;;;10.05;5.15;;;20.20;91.90;;;;;;5058599;28;20386;-55
2023/06/11 00:55:11;;;;;;;8.60;4.82;;;20.10;91.90;;;;;;5058278;28;20433;-55
2023/06/11 00:57:41;;;;;;;10.38;4.93;;;20.10;92.00;;;;;;5058307;28;20044;-55
2023/06/11 01:00:12;;;;;;;6.50;5.28;;;20.10;92.10;;;;;;5058683;28;20041;-55
2023/06/11 01:03:03;;;;;;;7.90;5.00;;;20.00;92.10;;;;;;5058217;28;20497;-55
2023/06/11 01:05:31;;;;;;;8.25;5.15;;;20.00;92.10;;;;;;5058564;28;20053;-56
2023/06/11 01:07:58;;;;;;;10.10;5.32;;;19.90;92.10;;;;;;5057880;28;20037;-54
2023/06/11 01:10:26;;;;;;;11.38;5.68;;;19.90;92.00;;;;;;5058363;28;20449;-55
2023/06/11 01:12:52;;;;;;;11.43;5.85;;;19.90;92.00;;;;;;5058510;28;20041;-55
2023/06/11 01:15:18;;;;;;;12.77;6.18;;;19.90;92.00;;;;;;5058215;28;20040;-56
2023/06/11 01:18:00;;;;;;;9.50;6.03;;;19.90;92.00;;;;;;5061842;28;20048;-59
2023/06/11 01:20:37;;;;;;;9.65;6.57;;;19.80;92.30;;;;;;5060465;28;20085;-56
2023/06/11 01:23:25;;;;;;;9.80;6.90;;;19.80;92.00;;;;;;5061973;28;20095;-55
2023/06/11 01:26:13;;;;;;;11.48;6.55;;;19.80;92.00;;;;;;5061960;28;20040;-55
2023/06/11 01:28:39;;;;;;;9.07;6.60;;;19.80;92.30;;;;;;5061347;28;20889;-55
2023/06/11 01:31:11;;;;;;;8.90;6.65;;;19.80;92.20;;;;;;5061879;28;20047;-56
2023/06/11 01:33:37;;;;;;;11.02;7.10;;;19.80;92.20;;;;;;5061521;28;20108;-55
2023/06/11 01:36:05;;;;;;;12.23;7.18;;;19.80;92.20;;;;;;5060504;28;20507;-55
2023/06/11 01:38:34;;;;;;;11.70;7.05;;;19.80;92.30;;;;;;5061606;28;20049;-55
2023/06/11 01:41:01;;;;;;;9.98;6.95;;;19.70;92.40;;;;;;5060222;28;20037;-55
2023/06/11 01:43:30;;;;;;;10.57;7.20;;;19.70;92.40;;;;;;5061668;28;20053;-55
2023/06/11 01:45:56;;;;;;;9.27;7.40;;;19.70;92.50;;;;;;5060749;28;20077;-54
2023/06/11 01:48:21;;;;;;;10.45;7.20;;;19.60;92.60;;;;;;5061542;28;20052;-55
2023/06/11 01:50:47;;;;;;;9.90;6.93;;;19.60;92.70;;;;;;5060723;28;20048;-55
2023/06/11 01:53:13;;;;;;;10.30;7.40;;;19.60;92.80;;;;;;5061319;28;20102;-55
2023/06/11 01:55:40;;;;;;;10.85;7.28;;;19.60;92.80;;;;;;5059933;28;20091;-55
2023/06/11 01:58:05;;;;;;;10.75;7.90;;;19.60;92.90;;;;;;5061156;28;20045;-55
2023/06/11 02:00:31;;;;;;;9.13;6.68;;;19.50;93.00;;;;;;5061449;28;20094;-55
2023/06/11 02:02:59;;;;;;;8.70;7.47;;;19.50;93.00;;;;;;5060727;28;20048;-55
2023/06/11 02:05:24;;;;;;;8.43;7.22;;;19.50;93.10;;;;;;5061079;28;20583;-55
2023/06/11 02:07:50;;;;;;;10.57;6.88;;;19.50;93.20;;;;;;5060645;28;20041;-55
2023/06/11 02:10:16;;;;;;;11.95;8.38;;;19.50;93.20;;;;;;5060793;28;20053;-54
2023/06/11 02:12:42;;;;;;;9.10;7.63;;;19.50;93.30;;;;;;5060734;28;20052;-55
2023/06/11 02:15:08;;;;;;;12.30;7.97;;;19.50;93.40;;;;;;5060918;28;20052;-54
2023/06/11 02:17:33;;;;;;;10.30;7.53;;;19.40;93.50;;;;;;5061141;28;20044;-55
2023/06/11 02:19:59;;;;;;;9.45;7.50;;;19.40;93.60;;;;;;5060588;28;20041;-56
2023/06/11 02:22:25;;;;;;;10.02;7.63;;;19.40;93.70;;;;;;5060862;28;20041;-55
2023/06/11 02:24:51;;;;;;;11.48;7.97;;;19.30;93.80;;;;;;5060393;28;20052;-55
2023/06/11 02:27:17;;;;;;;9.05;7.15;;;19.30;93.90;;;;;;5060267;28;20045;-55
2023/06/11 02:29:42;;;;;;;9.05;7.82;;;19.30;94.00;;;;;;5060399;28;20052;-55
2023/06/11 02:32:08;;;;;;;11.55;7.32;;;19.30;94.10;;;;;;5060635;28;20041;-56
2023/06/11 02:34:34;;;;;;;11.68;7.70;;;19.30;94.20;;;;;;5060991;28;20029;-55
2023/06/11 02:36:59;;;;;;;9.68;7.72;;;19.20;94.20;;;;;;5059960;28;20544;-55
2023/06/11 02:39:25;;;;;;;10.02;7.72;;;19.20;94.20;;;;;;5060977;28;20051;-55
2023/06/11 02:41:51;;;;;;;8.52;7.57;;;19.20;94.30;;;;;;5059697;28;20066;-55
2023/06/11 02:44:16;;;;;;;8.48;7.35;;;19.20;94.30;;;;;;5060525;28;20045;-55
2023/06/11 02:46:42;;;;;;;8.45;7.55;;;19.10;94.30;;;;;;5059991;28;20080;-55
2023/06/11 02:49:08;;;;;;;9.93;7.40;;;19.10;94.40;;;;;;5060416;28;20041;-55
2023/06/11 02:51:33;;;;;;;8.40;7.00;;;19.10;94.40;;;;;;5060083;28;20151;-54
2023/06/11 02:53:59;;;;;;;10.40;7.68;;;19.10;94.50;;;;;;5059966;28;20397;-56
2023/06/11 02:56:26;;;;;;;9.18;7.18;;;19.10;94.50;;;;;;5060562;28;20048;-56
2023/06/11 02:58:51;;;;;;;11.00;7.50;;;19.00;94.60;;;;;;5059673;28;20089;-55
2023/06/11 03:01:17;;;;;;;11.18;7.82;;;19.00;94.70;;;;;;5059951;28;20041;-55
2023/06/11 03:03:43;;;;;;;9.80;7.70;;;19.00;94.70;;;;;;5059841;28;20045;-55
2023/06/11 03:06:08;;;;;;;8.93;6.57;;;19.00;94.80;;;;;;5059821;28;20076;-55
2023/06/11 03:08:34;;;;;;;8.80;7.90;;;18.90;94.80;;;;;;5060036;28;20044;-55
2023/06/11 03:11:00;;;;;;;10.55;7.50;;;18.90;94.90;;;;;;5059426;28;20060;-55
2023/06/11 03:13:25;;;;;;;9.88;7.47;;;18.90;95.00;;;;;;5060183;28;20465;-55
2023/06/11 03:15:51;;;;;;;11.35;7.70;;;18.90;95.10;;;;;;5059469;28;20429;-55
2023/06/11 03:18:17;;;;;;;8.75;7.53;;;18.80;95.20;;;;;;5059934;28;20517;-55
2023/06/11 03:20:43;;;;;;;10.07;7.47;;;18.80;95.30;;;;;;5059056;28;20069;-56
2023/06/11 03:23:10;;;;;;;8.88;7.15;;;18.80;95.30;;;;;;5059691;28;20044;-55
2023/06/11 03:25:36;;;;;;;10.05;7.80;;;18.80;95.30;;;;;;5059478;28;20605;-55
2023/06/11 03:28:02;;;;;;;8.73;7.47;;;18.80;95.40;;;;;;5059422;28;20037;-56
2023/06/11 03:30:28;;;;;;;9.07;7.63;;;18.80;95.40;;;;;;5059757;28;20072;-55
2023/06/11 03:32:54;;;;;;;9.73;7.80;;;18.70;95.50;;;;;;5059001;28;20114;-55
2023/06/11 03:35:20;;;;;;;9.20;8.20;;;18.70;95.60;;;;;;5059668;28;20041;-55
2023/06/11 03:37:45;;;;;;;11.05;7.88;;;18.70;95.70;;;;;;5059108;28;20073;-55
2023/06/11 03:40:11;;;;;;;9.55;8.02;;;18.70;95.70;;;;;;5058739;28;20103;-55
2023/06/11 03:42:37;;;;;;;10.07;7.75;;;18.70;95.80;;;;;;5059203;28;20071;-54
2023/06/11 03:45:03;;;;;;;10.88;7.60;;;18.70;95.90;;;;;;5059236;28;20048;-55
2023/06/11 03:47:28;;;;;;;11.30;8.32;;;18.70;96.00;;;;;;5059594;28;20048;-55
2023/06/11 03:49:54;;;;;;;11.85;7.25;;;18.60;96.00;;;;;;5058740;28;20041;-55
2023/06/11 03:52:20;;;;;;;10.32;7.57;;;18.60;96.10;;;;;;5059063;28;20037;-55
2023/06/11 03:54:46;;;;;;;8.43;7.50;;;18.60;96.20;;;;;;5058551;28;20055;-55
2023/06/11 03:57:12;;;;;;;9.38;7.72;;;18.60;96.20;;;;;;5059222;28;20045;-54
2023/06/11 03:59:38;;;;;;;9.32;7.40;;;18.60;96.30;;;;;;5058793;28;20090;-56
2023/06/11 04:02:04;;;;;;;10.57;7.53;;;18.60;96.30;;;;;;5059164;28;20041;-55
2023/06/11 04:04:32;;;;;;;8.65;7.78;;;18.60;96.50;;;;;;5059298;28;20068;-55
2023/06/11 04:06:58;;;;;;;9.00;7.60;;;18.60;96.50;;;;;;5058714;28;20045;-54
2023/06/11 04:09:24;;;;;;;10.18;7.55;;;18.60;96.60;;;;;;5059102;28;20119;-55
2023/06/11 04:11:50;;;;;;;8.68;7.78;;;18.60;96.70;;;;;;5058671;28;20471;-55
2023/06/11 04:14:16;;;;;;;9.50;7.53;;;18.60;96.70;;;;;;5059128;28;20052;-54
2023/06/11 04:16:42;;;;;;;9.95;7.65;;;18.60;96.80;;;;;;5058758;28;20044;-55
2023/06/11 04:19:07;;;;;;;9.55;6.82;;;18.60;96.90;;;;;;5058926;28;20095;-56
2023/06/11 04:21:33;;;;;;;9.40;7.22;;;18.50;97.30;;;;;;5058707;28;20048;-55
2023/06/11 04:23:59;;;;;;;9.40;7.68;;;18.50;97.00;;;;;;5058612;28;20072;-56
2023/06/11 04:26:25;;;;;;;8.68;7.63;;;18.50;97.10;;;;;;5059045;28;20095;-55
2023/06/11 04:28:52;;;;;;;8.77;7.30;;;18.50;97.20;;;;;;5058280;28;20037;-56
2023/06/11 04:31:18;;;;;;;10.13;7.35;;;18.50;97.30;;;;;;5058709;28;20045;-55
2023/06/11 04:33:46;;;;;;;9.25;7.30;;;18.50;97.50;;;;;;5058469;28;20041;-55
2023/06/11 04:36:11;;;;;;;9.82;7.43;;;18.50;97.50;;;;;;5058940;28;20083;-55
2023/06/11 04:38:38;;;;;;;10.68;8.00;;;18.50;97.70;;;;;;5058671;28;20044;-55
2023/06/11 04:41:05;;;;;;;9.82;8.00;;;18.50;97.80;;;;;;5058228;28;20051;-55
2023/06/11 04:43:34;;;;;;;8.32;7.45;;;18.50;97.80;;;;;;5059067;28;20045;-55
2023/06/11 04:46:00;;;;;;;9.75;7.70;;;18.50;97.90;;;;;;5056717;28;20592;-55
2023/06/11 04:48:28;;;;;;;9.20;7.75;;;18.50;98.00;;;;;;5058674;28;20108;-55
2023/06/11 04:50:54;;;;;;;9.50;8.10;;;18.50;98.10;;;;;;5058414;28;20501;-55
2023/06/11 04:53:27;;;;;;;8.90;7.72;;;18.60;98.20;;;;;;5062517;28;20045;-55
2023/06/11 04:55:57;;;;;;;10.00;7.93;;;18.60;98.20;;;;;;5062537;28;20041;-55
2023/06/11 04:58:27;;;;;;;9.07;8.10;;;18.60;98.30;;;;;;5044174;28;20049;-56
2023/06/11 05:00:57;;;;;;;9.27;8.30;;;18.60;98.40;;;;;;5062522;28;20049;-55
2023/06/11 05:03:24;;;;;;;11.07;8.63;;;18.70;98.40;;;;;;5061739;28;20096;-55
2023/06/11 05:05:51;;;;;;;11.63;8.15;;;18.70;98.40;;;;;;5062335;28;20091;-55
2023/06/11 05:08:18;;;;;;;8.82;7.95;;;18.80;98.50;;;;;;5062036;28;20127;-55
2023/06/11 05:10:44;;;;;;;9.77;8.70;;;18.70;98.50;;;;;;5061932;28;20045;-55
2023/06/11 05:13:11;;;;;;;10.90;8.60;;;18.80;98.60;;;;;;5062452;28;20120;-55
2023/06/11 05:15:37;;;;;;;10.20;8.75;;;18.80;98.80;;;;;;5061661;28;20048;-55
2023/06/11 05:18:03;;;;;;;14.55;8.68;;;18.90;98.70;;;;;;5062156;28;20061;-55
2023/06/11 05:20:29;;;;;;;10.18;8.63;;;18.90;98.60;;;;;;5061705;28;20045;-54
2023/06/11 05:22:59;;;;;;;10.05;8.15;;;18.90;98.70;;;;;;5060560;28;20033;-55
2023/06/11 05:25:28;;;;;;;11.35;8.50;;;19.00;98.70;;;;;;5061725;28;20681;-55
2023/06/11 05:27:57;;;;;;;10.73;8.98;;;19.10;98.70;;;;;;5061974;28;20538;-55
2023/06/11 05:30:25;;;;;;;11.10;8.48;;;19.10;98.80;;;;;;5061996;28;20037;-55
2023/06/11 05:32:51;;;;;;;8.98;8.05;;;19.20;98.80;;;;;;5060024;28;20390;-55
2023/06/11 05:35:17;;;;;;;9.60;7.78;;;19.20;98.70;;;;;;5061813;28;20071;-55
2023/06/11 05:37:44;;;;;;;11.73;8.40;;;19.30;98.80;;;;;;5059913;28;20040;-56
2023/06/11 05:40:11;;;;;;;11.00;8.82;;;19.30;98.80;;;;;;5061938;28;20033;-54
2023/06/11 05:42:37;;;;;;;10.05;7.95;;;19.40;98.80;;;;;;5061649;28;20052;-55
2023/06/11 05:45:04;;;;;;;12.13;8.43;;;19.40;98.80;;;;;;5061407;28;20041;-55
2023/06/11 05:47:30;;;;;;;10.10;8.25;;;19.50;98.90;;;;;;5061724;28;20045;-56
2023/06/11 05:49:56;;;;;;;10.80;8.63;;;19.60;98.90;;;;;;5061003;28;20127;-55
2023/06/11 05:52:23;;;;;;;10.98;8.68;;;19.60;98.90;;;;;;5061289;28;20048;-56
2023/06/11 05:54:48;;;;;;;10.45;8.50;;;19.70;98.80;;;;;;5060935;28;20032;-56
2023/06/11 05:57:22;;;;;;;11.40;8.52;;;19.70;98.70;;;;;;5061491;28;20080;-55
2023/06/11 05:59:47;;;;;;;10.73;8.50;;;19.80;98.50;;;;;;5061019;28;20112;-55
2023/06/11 06:02:13;;;;;;;8.80;7.90;;;19.90;98.40;;;;;;5060554;28;20049;-56
2023/06/11 06:04:39;;;;;;;10.75;8.85;;;20.00;98.40;;;;;;5026821;28;20102;-55
2023/06/11 06:07:05;;;;;;;11.20;8.20;;;20.10;98.30;;;;;;5060618;28;20053;-55
2023/06/11 06:09:32;;;;;;;9.75;8.60;;;20.10;98.20;;;;;;5061151;28;20076;-55
2023/06/11 06:11:57;;;;;;;10.93;8.20;;;20.20;98.10;;;;;;5060710;28;20080;-55
2023/06/11 06:14:23;;;;;;;11.05;8.90;;;20.20;98.10;;;;;;5060842;28;20057;-56
2023/06/11 06:16:49;;;;;;;9.68;8.40;;;20.40;97.90;;;;;;5060728;28;20064;-55
2023/06/11 06:19:14;;;;;;;11.95;8.13;;;20.40;97.80;;;;;;5060971;28;20037;-56
2023/06/11 06:21:40;;;;;;;10.90;8.40;;;20.50;97.80;;;;;;5060980;28;20049;-56
2023/06/11 06:24:06;;;;;;;10.50;8.38;;;20.60;97.70;;;;;;5060462;28;20483;-56
2023/06/11 06:26:32;;;;;;;9.25;8.20;;;20.70;97.60;;;;;;5060940;28;20091;-55
2023/06/11 06:28:58;;;;;;;8.57;7.68;;;20.80;97.50;;;;;;5060134;28;20044;-56
2023/06/11 06:31:24;;;;;;;9.73;8.73;;;21.00;97.40;;;;;;5059287;28;20047;-56
2023/06/11 06:33:50;;;;;;;8.63;7.72;;;21.10;97.10;;;;;;5060256;28;20045;-55
2023/06/11 06:36:19;;;;;;;12.32;8.40;;;21.30;97.00;;;;;;5060585;28;20076;-55
2023/06/11 06:38:46;;;;;;;9.07;8.13;;;21.50;96.80;;;;;;5060609;28;20049;-54
2023/06/11 06:41:12;;;;;;;9.57;8.25;;;21.70;96.60;;;;;;5060113;28;20041;-55
2023/06/11 06:43:38;;;;;;;10.10;8.48;;;21.80;96.10;;;;;;5060929;28;20051;-56
2023/06/11 06:46:04;;;;;;;8.75;7.85;;;22.00;95.90;;;;;;5059802;28;20147;-55
2023/06/11 06:48:31;;;;;;;10.88;8.45;;;22.10;95.70;;;;;;5060323;28;20041;-56
2023/06/11 06:50:57;;;;;;;8.82;7.93;;;22.20;95.60;;;;;;5059846;28;20121;-55
2023/06/11 06:53:22;;;;;;;13.27;8.00;;;22.40;95.50;;;;;;5060116;28;20120;-56
2023/06/11 06:55:48;;;;;;;11.30;7.97;;;22.60;95.30;;;;;;5060170;28;20045;-55
2023/06/11 06:58:14;;;;;;;10.27;7.95;;;22.70;95.20;;;;;;5059884;28;20044;-56
2023/06/11 07:00:40;;;;;;;10.50;7.63;;;22.90;95.10;;;;;;5060348;28;20051;-57
2023/06/11 07:03:06;;;;;;;11.20;8.27;;;23.10;94.80;;;;;;5059512;28;20048;-56
2023/06/11 07:05:32;;;;;;;8.80;7.85;;;23.20;94.50;;;;;;5059897;28;20048;-57
2023/06/11 07:07:58;;;;;;;11.13;8.52;;;23.30;94.40;;;;;;5059529;28;20041;-56
2023/06/11 07:10:25;;;;;;;8.77;7.47;;;23.50;94.20;;;;;;5059720;28;20057;-56
2023/06/11 07:12:50;;;;;;;7.93;6.97;;;23.60;94.10;;;;;;5059990;28;20090;-56
2023/06/11 07:15:16;;;;;;;7.97;7.18;;;23.80;94.10;;;;;;5058772;28;20468;-56
2023/06/11 07:17:42;;;;;;;8.98;6.85;;;23.90;93.90;;;;;;5059987;28;20044;-56
2023/06/11 07:20:08;;;;;;;9.77;7.40;;;24.10;93.90;;;;;;5057859;28;20068;-56
2023/06/11 07:22:33;;;;;;;8.65;7.40;;;24.30;93.90;;;;;;5058047;28;20041;-57
2023/06/11 07:25:00;;;;;;;11.05;7.47;;;24.40;93.80;;;;;;5059348;28;20059;-58
2023/06/11 07:27:26;;;;;;;9.93;7.65;;;24.60;93.50;;;;;;5059621;28;20066;-56
2023/06/11 07:29:52;;;;;;;8.57;6.97;;;24.80;93.60;;;;;;5059499;28;20079;-55
2023/06/11 07:32:18;;;;;;;8.38;7.03;;;25.00;93.60;;;;;;5059566;28;20044;-56
2023/06/11 07:34:44;;;;;;;8.60;6.30;;;25.20;93.40;;;;;;5059776;28;20033;-56
2023/06/11 07:37:10;;;;;;;8.80;6.55;;;25.50;93.40;;;;;;5058990;28;20033;-56
2023/06/11 07:39:35;;;;;;;7.68;6.80;;;25.80;93.30;;;;;;5059576;28;20065;-57
2023/06/11 07:42:04;;;;;;;10.23;6.43;;;26.10;92.70;;;;;;5059142;28;20045;-56
2023/06/11 07:44:30;;;;;;;7.63;6.55;;;26.40;92.30;;;;;;5059403;28;20056;-56
2023/06/11 07:46:56;;;;;;;9.38;6.80;;;26.60;92.10;;;;;;5059323;28;20045;-55
2023/06/11 07:49:22;;;;;;;10.00;6.80;;;26.90;91.60;;;;;;5059036;28;20033;-55
2023/06/11 07:51:47;;;;;;;6.57;5.97;;;27.10;90.50;;;;;;5057991;28;20110;-56
2023/06/11 07:54:13;;;;;;;7.00;6.30;;;27.10;90.50;;;;;;5058672;28;20037;-56
2023/06/11 07:56:39;;;;;;;8.52;6.63;;;27.30;90.30;;;;;;5059337;28;20052;-57
2023/06/11 07:59:04;;;;;;;9.43;6.55;;;27.40;90.10;;;;;;5058618;28;20048;-56
2023/06/11 08:01:30;;;;;;;6.72;5.97;;;27.50;89.20;;;;;;5059090;28;20052;-56
2023/06/11 08:03:56;;;;;;;6.95;6.13;;;27.60;88.80;;;;;;5059008;28;20041;-56
2023/06/11 08:06:22;;;;;;;7.00;6.05;;;27.70;88.10;;;;;;5058943;28;20037;-56
2023/06/11 08:08:48;;;;;;;9.27;6.20;;;27.80;88.00;;;;;;5059143;28;20079;-56
2023/06/11 08:11:14;;;;;;;9.43;6.05;;;28.00;86.70;;;;;;5058401;28;20056;-56
2023/06/11 08:13:40;;;;;;;8.10;6.35;;;28.10;86.50;;;;;;5059166;28;20073;-57
2023/06/11 08:16:09;;;;;;;9.30;6.13;;;28.30;86.20;;;;;;5058400;28;20044;-56
2023/06/11 08:18:35;;;;;;;6.90;6.20;;;28.30;86.10;;;;;;5058790;28;20045;-56
2023/06/11 08:21:02;;;;;;;9.07;5.97;;;28.50;86.60;;;;;;5058323;28;20476;-57
2023/06/11 08:23:28;;;;;;;7.38;6.55;;;28.60;85.50;;;;;;5058756;28;20044;-57
2023/06/11 08:25:58;;;;;;;8.57;5.68;;;28.70;84.60;;;;;;5061088;28;20049;-57
2023/06/11 08:28:24;;;;;;;7.07;5.85;;;28.80;84.00;;;;;;5062680;28;20037;-57
2023/06/11 08:30:50;;;;;;;7.93;6.28;;;29.00;82.50;;;;;;5063300;28;20044;-56
2023/06/11 08:33:17;;;;;;;7.78;5.95;;;28.90;82.00;;;;;;5061224;28;20037;-57
2023/06/11 08:35:43;;;;;;;6.82;6.13;;;29.00;81.60;;;;;;5062942;28;20093;-57
2023/06/11 08:38:08;;;;;;;7.40;5.93;;;29.10;81.80;;;;;;5062464;28;20056;-56
2023/06/11 08:40:40;;;;;;;9.00;5.97;;;29.30;81.20;;;;;;5061445;28;20048;-56
2023/06/11 08:43:09;;;;;;;6.85;6.15;;;29.40;81.80;;;;;;5062963;28;20045;-57
2023/06/11 08:45:35;;;;;;;8.20;5.47;;;29.60;81.30;;;;;;5062214;28;20041;-57
2023/06/11 08:48:03;;;;;;;7.40;6.60;;;29.60;80.50;;;;;;5063097;28;20045;-57
2023/06/11 08:50:31;;;;;;;8.45;6.40;;;29.60;79.40;;;;;;5062198;28;20077;-58
2023/06/11 08:53:00;;;;;;;6.88;6.18;;;29.70;80.00;;;;;;5062618;28;20045;-56
2023/06/11 08:55:27;;;;;;;11.30;6.32;;;29.80;79.40;;;;;;5060980;28;20477;-56
2023/06/11 08:57:53;;;;;;;7.95;6.50;;;29.70;78.40;;;;;;5062348;28;20041;-56
2023/06/11 09:00:19;;;;;;;6.32;5.50;;;29.70;78.30;;;;;;5062485;28;20041;-56
2023/06/11 09:02:45;;;;;;;8.65;5.82;;;29.80;79.50;;;;;;5061994;28;20041;-57
2023/06/11 09:05:11;;;;;;;7.68;5.70;;;29.90;79.20;;;;;;5062484;28;20029;-57
2023/06/11 09:07:37;;;;;;;6.50;5.80;;;30.10;79.30;;;;;;5061617;28;20052;-56
2023/06/11 09:10:10;;;;;;;6.90;5.78;;;30.20;79.20;;;;;;5062192;28;20037;-56
2023/06/11 09:12:36;;;;;;;9.23;5.75;;;30.30;77.70;;;;;;5062354;28;20064;-57
2023/06/11 09:15:04;;;;;;;9.07;5.95;;;30.40;77.30;;;;;;5062083;28;20124;-57
2023/06/11 09:17:37;;;;;;;6.85;5.75;;;30.40;76.70;;;;;;5062353;28;20049;-56
2023/06/11 09:20:08;;;;;;;7.07;5.53;;;30.40;76.10;;;;;;5061353;28;20079;-56
2023/06/11 09:22:36;;;;;;;5.60;5.10;;;30.40;76.30;;;;;;5061791;28;20045;-57
2023/06/11 09:25:06;;;;;;;6.32;5.72;;;30.40;77.00;;;;;;5061626;28;20064;-56
2023/06/11 09:27:32;;;;;;;7.28;6.13;;;30.50;75.00;;;;;;5061883;28;20049;-57
2023/06/11 09:30:07;;;;;;;6.68;5.60;;;30.40;75.00;;;;;;5060682;28;20047;-56
2023/06/11 09:32:40;;;;;;;8.15;5.47;;;30.40;74.30;;;;;;5061373;28;20041;-57
2023/06/11 09:35:08;;;;;;;6.97;5.20;;;30.40;75.30;;;;;;5062040;28;20045;-57
2023/06/11 09:37:49;;;;;;;7.40;5.43;;;30.40;76.00;;;;;;5060325;28;20045;-57
2023/06/11 09:40:17;;;;;;;8.90;5.18;;;30.60;75.60;;;;;;5060306;28;20123;-57
2023/06/11 09:42:44;;;;;;;6.32;5.72;;;30.50;76.50;;;;;;5061835;28;20076;-56
2023/06/11 09:45:16;;;;;;;6.13;5.47;;;30.60;76.90;;;;;;5061177;28;20061;-56
2023/06/11 09:47:46;;;;;;;6.25;5.50;;;30.70;76.10;;;;;;5060512;28;20041;-56
2023/06/11 09:50:17;;;;;;;6.20;5.10;;;30.70;75.00;;;;;;5060947;28;20052;-57
2023/06/11 09:52:45;;;;;;;8.73;5.70;;;30.70;75.50;;;;;;5061135;28;20052;-57
2023/06/11 09:55:11;;;;;;;6.03;5.40;;;30.80;75.00;;;;;;5060978;28;20064;-56
2023/06/11 09:57:38;;;;;;;6.72;5.53;;;30.80;74.90;;;;;;5061293;28;20058;-56
2023/06/11 10:00:09;;;;;;;6.20;5.30;;;30.80;74.60;;;;;;5061256;28;20048;-56
2023/06/11 10:02:41;;;;;;;8.13;5.50;;;30.80;75.10;;;;;;5059553;28;20053;-57
2023/06/11 10:05:09;;;;;;;6.05;4.95;;;30.80;74.30;;;;;;5061366;28;20041;-57
2023/06/11 10:07:46;;;;;;;5.82;5.28;;;30.80;74.40;;;;;;5059373;28;20508;-57
2023/06/11 10:10:15;;;;;;;6.00;5.40;;;30.80;74.00;;;;;;5060972;28;20071;-56
2023/06/11 10:12:41;;;;;;;6.35;5.50;;;30.80;73.80;;;;;;5061245;28;20049;-56
2023/06/11 10:15:11;;;;;;;7.45;5.95;;;30.80;73.50;;;;;;5060801;28;20068;-57
2023/06/11 10:17:43;;;;;;;5.50;4.95;;;30.70;73.30;;;;;;5060037;28;20044;-56
2023/06/11 10:20:20;;;;;;;9.82;5.40;;;30.70;72.70;;;;;;5060478;28;20045;-57
2023/06/11 10:22:46;;;;;;;5.68;4.95;;;30.60;72.40;;;;;;5060653;28;20052;-57
2023/06/11 10:25:12;;;;;;;6.88;5.05;;;30.50;72.60;;;;;;5060502;28;20041;-56
2023/06/11 10:27:41;;;;;;;8.30;4.97;;;30.40;71.80;;;;;;5060604;28;20048;-57
2023/06/11 10:30:08;;;;;;;6.00;5.40;;;30.30;72.30;;;;;;5070445;28;20040;-60
2023/06/11 10:32:34;;;;;;;5.60;5.00;;;30.30;73.30;;;;;;5059851;28;20088;-56
2023/06/11 10:35:04;;;;;;;5.57;4.82;;;30.20;72.30;;;;;;5060505;28;20043;-56
2023/06/11 10:37:36;;;;;;;6.18;4.80;;;30.20;71.30;;;;;;5061007;28;20043;-56
2023/06/11 10:40:03;;;;;;;6.53;5.00;;;30.10;70.50;;;;;;5066250;28;20357;-57
2023/06/11 10:42:37;;;;;;;6.78;5.03;;;30.10;70.30;;;;;;5074392;28;20134;-57
2023/06/11 10:45:13;;;;;;;6.13;4.85;;;30.10;69.80;;;;;;5079569;28;20493;-58
2023/06/11 10:47:49;;;;;;;5.40;4.80;;;30.10;69.00;;;;;;5065777;28;20375;-58
2023/06/11 10:50:30;;;;;;;6.78;4.63;;;30.00;68.90;;;;;;5076657;28;20053;-58
2023/06/11 10:53:06;;;;;;;10.07;4.82;;;30.00;68.50;;;;;;5073836;28;20470;-58
2023/06/11 10:55:32;;;;;;;5.43;4.93;;;29.90;67.50;;;;;;5073575;28;20488;-57
2023/06/11 10:58:00;;;;;;;6.85;4.85;;;29.80;68.40;;;;;;5074584;28;20033;-57
2023/06/11 11:00:28;;;;;;;6.57;4.68;;;29.80;68.10;;;;;;5074628;28;20102;-58
2023/06/11 11:02:56;;;;;;;5.50;4.40;;;29.90;67.30;;;;;;5063810;28;20033;-58
2023/06/11 11:05:22;;;;;;;6.07;4.88;;;29.80;68.10;;;;;;5068234;28;20052;-57
2023/06/11 11:07:48;;;;;;;6.05;4.47;;;30.00;68.10;;;;;;5058382;28;20041;-58
2023/06/11 11:10:19;;;;;;;6.32;4.60;;;30.00;66.80;;;;;;5073576;28;20052;-58
2023/06/11 11:12:47;;;;;;;6.35;3.97;;;30.10;67.00;;;;;;5073576;28;20048;-57
2023/06/11 11:15:13;;;;;;;5.60;4.22;;;30.20;67.10;;;;;;5071279;28;20480;-56
2023/06/11 11:17:40;;;;;;;4.88;4.13;;;30.30;65.60;;;;;;5070989;28;20033;-58
2023/06/11 11:20:10;;;;;;;5.45;4.38;;;30.40;64.90;;;;;;5059374;28;20040;-58
2023/06/11 11:22:37;;;;;;;5.90;4.57;;;30.50;65.00;;;;;;5059350;28;20479;-57
2023/06/11 11:25:04;;;;;;;8.32;4.40;;;30.50;63.80;;;;;;5069414;28;20071;-58
2023/06/11 11:27:30;;;;;;;5.72;4.55;;;30.60;63.50;;;;;;5079526;28;20051;-59
2023/06/11 11:29:58;;;;;;;5.03;4.53;;;30.50;64.20;;;;;;5074791;28;20048;-58
2023/06/11 11:32:27;;;;;;;5.05;4.55;;;30.50;63.30;;;;;;5072761;28;20044;-61
2023/06/11 11:34:55;;;;;;;5.18;4.65;;;30.50;63.40;;;;;;5079379;28;20028;-59
2023/06/11 11:37:22;;;;;;;5.55;4.50;;;30.50;63.50;;;;;;5078330;28;20488;-58
2023/06/11 11:39:48;;;;;;;8.10;4.32;;;30.50;64.60;;;;;;5078140;28;20546;-56
2023/06/11 11:42:14;;;;;;;8.75;4.45;;;30.60;63.70;;;;;;5076897;28;20048;-60
2023/06/11 11:44:41;;;;;;;6.80;4.03;;;30.70;64.60;;;;;;5077529;28;20107;-60
2023/06/11 11:47:18;;;;;;;5.93;4.25;;;30.90;63.90;;;;;;5059977;28;20037;-59
2023/06/11 11:49:54;;;;;;;6.90;4.57;;;31.10;63.50;;;;;;5058602;28;20506;-59
2023/06/11 11:52:23;;;;;;;4.78;4.00;;;31.20;63.70;;;;;;5065896;28;20048;-59
2023/06/11 11:54:50;;;;;;;9.05;4.70;;;31.40;64.40;;;;;;5071899;28;20120;-58
2023/06/11 11:57:20;;;;;;;9.43;5.10;;;31.40;61.90;;;;;;5060670;28;20121;-58
2023/06/11 11:59:46;;;;;;;8.00;4.07;;;31.50;62.00;;;;;;5061922;28;20041;-57
2023/06/11 12:02:12;;;;;;;7.60;4.38;;;31.50;61.20;;;;;;5068644;28;20067;-57
2023/06/11 12:04:45;;;;;;;7.20;4.30;;;31.50;60.60;;;;;;5077965;28;20043;-57
2023/06/11 12:07:15;;;;;;;5.70;4.20;;;31.50;59.70;;;;;;5068092;28;20053;-57
2023/06/11 12:09:41;;;;;;;5.80;4.20;;;31.50;58.40;;;;;;5078948;28;20048;-57
2023/06/11 12:12:08;;;;;;;6.60;4.55;;;31.40;58.90;;;;;;5078280;28;20048;-57
2023/06/11 12:14:35;;;;;;;7.25;4.80;;;31.40;59.50;;;;;;5078538;28;20071;-57
2023/06/11 12:17:00;;;;;;;6.97;4.65;;;31.50;59.00;;;;;;5077911;28;20052;-57
2023/06/11 12:19:29;;;;;;;6.40;3.95;;;31.50;58.40;;;;;;5078757;28;20415;-58
2023/06/11 12:21:58;;;;;;;5.53;4.07;;;31.50;58.10;;;;;;5078740;28;20048;-57
2023/06/11 12:24:24;;;;;;;6.57;4.63;;;31.40;58.30;;;;;;5078220;28;20060;-58
2023/06/11 12:26:51;;;;;;;5.20;4.30;;;31.50;58.80;;;;;;5077241;28;20533;-58
2023/06/11 12:29:17;;;;;;;6.25;4.47;;;31.80;58.90;;;;;;5076795;28;20045;-58
2023/06/11 12:31:45;;;;;;;4.45;4.03;;;31.90;58.60;;;;;;5070987;28;20056;-58
2023/06/11 12:34:14;;;;;;;5.60;4.43;;;32.10;59.00;;;;;;5074955;28;20045;-57
2023/06/11 12:36:43;;;;;;;7.25;4.30;;;32.30;59.00;;;;;;5060396;28;20052;-58
2023/06/11 12:39:10;;;;;;;8.98;4.72;;;32.40;58.20;;;;;;5041378;28;20044;-57
2023/06/11 12:41:36;;;;;;;5.90;4.55;;;32.60;57.50;;;;;;5069775;28;20063;-57
2023/06/11 12:44:02;;;;;;;5.80;4.38;;;32.70;57.60;;;;;;5060327;28;20658;-57